sensor_id;sensor_type;location;lat;lon;timestamp;temperature;humidity
11136;DHT22;5622;50.840;4.948;2022-10-03T00:04:31;10.50;99.90
11136;DHT22;5622;50.840;4.948;2022-10-03T00:07:09;10.50;99.90
11136;DHT22;5622;50.840;4.948;2022-10-03T00:09:56;10.50;99.90
11136;DHT22;5622;50.840;4.948;2022-10-03T00:12:48;10.50;99.90
11136;DHT22;5622;50.840;4.948;2022-10-03T00:15:20;10.50;99.90
11136;DHT22;5622;50.840;4.948;2022-10-03T00:18:01;10.40;99.90
11136;DHT22;5622;50.840;4.948;2022-10-03T00:21:02;10.50;99.90
11136;DHT22;5622;50.840;4.948;2022-10-03T00:23:39;10.40;99.90
11136;DHT22;5622;50.840;4.948;2022-10-03T00:26:15;10.40;99.90
11136;DHT22;5622;50.840;4.948;2022-10-03T00:29:16;10.40;99.90
11136;DHT22;5622;50.840;4.948;2022-10-03T00:31:53;10.50;99.90
11136;DHT22;5622;50.840;4.948;2022-10-03T00:34:29;10.50;99.90
11136;DHT22;5622;50.840;4.948;2022-10-03T00:37:13;10.50;99.90
11136;DHT22;5622;50.840;4.948;2022-10-03T00:39:56;10.50;99.90
11136;DHT22;5622;50.840;4.948;2022-10-03T00:43:03;10.50;99.90
11136;DHT22;5622;50.840;4.948;2022-10-03T00:46:02;10.50;99.90
11136;DHT22;5622;50.840;4.948;2022-10-03T00:49:03;10.50;99.90
11136;DHT22;5622;50.840;4.948;2022-10-03T00:51:46;10.60;99.90
11136;DHT22;5622;50.840;4.948;2022-10-03T00:54:28;10.60;99.90
11136;DHT22;5622;50.840;4.948;2022-10-03T00:57:06;10.70;99.90
11136;DHT22;5622;50.840;4.948;2022-10-03T01:00:00;10.60;99.90
11136;DHT22;5622;50.840;4.948;2022-10-03T01:02:47;10.60;99.90
11136;DHT22;5622;50.840;4.948;2022-10-03T01:05:26;10.70;99.90
11136;DHT22;5622;50.840;4.948;2022-10-03T01:10:49;10.60;99.90
11136;DHT22;5622;50.840;4.948;2022-10-03T01:13:35;10.70;99.90
11136;DHT22;5622;50.840;4.948;2022-10-03T01:16:17;10.60;99.90
11136;DHT22;5622;50.840;4.948;2022-10-03T01:18:59;10.60;99.90
11136;DHT22;5622;50.840;4.948;2022-10-03T01:21:42;10.60;99.90
11136;DHT22;5622;50.840;4.948;2022-10-03T01:24:51;10.60;99.90
11136;DHT22;5622;50.840;4.948;2022-10-03T01:27:29;10.60;99.90
11136;DHT22;5622;50.840;4.948;2022-10-03T01:30:02;10.50;99.90
11136;DHT22;5622;50.840;4.948;2022-10-03T01:32:52;10.50;99.90
11136;DHT22;5622;50.840;4.948;2022-10-03T01:35:29;10.50;99.90
11136;DHT22;5622;50.840;4.948;2022-10-03T01:38:10;10.50;99.90
11136;DHT22;5622;50.840;4.948;2022-10-03T01:40:43;10.50;99.90
11136;DHT22;5622;50.840;4.948;2022-10-03T01:43:17;10.50;99.90
11136;DHT22;5622;50.840;4.948;2022-10-03T01:46:05;10.50;99.90
11136;DHT22;5622;50.840;4.948;2022-10-03T01:48:41;10.50;99.90
11136;DHT22;5622;50.840;4.948;2022-10-03T01:51:12;10.50;99.90
11136;DHT22;5622;50.840;4.948;2022-10-03T01:53:56;10.50;99.90
11136;DHT22;5622;50.840;4.948;2022-10-03T01:56:30;10.50;99.90
11136;DHT22;5622;50.840;4.948;2022-10-03T01:59:02;10.40;99.90
11136;DHT22;5622;50.840;4.948;2022-10-03T02:01:42;10.40;99.90
11136;DHT22;5622;50.840;4.948;2022-10-03T02:04:19;10.40;99.90
11136;DHT22;5622;50.840;4.948;2022-10-03T02:06:57;10.40;99.90
11136;DHT22;5622;50.840;4.948;2022-10-03T02:09:32;10.40;99.90
11136;DHT22;5622;50.840;4.948;2022-10-03T02:12:08;10.40;99.90
11136;DHT22;5622;50.840;4.948;2022-10-03T02:14:50;10.40;99.90
11136;DHT22;5622;50.840;4.948;2022-10-03T02:17:42;10.40;99.90
11136;DHT22;5622;50.840;4.948;2022-10-03T02:20:21;10.30;99.90
11136;DHT22;5622;50.840;4.948;2022-10-03T02:22:52;10.40;99.90
11136;DHT22;5622;50.840;4.948;2022-10-03T02:25:24;10.30;99.90
11136;DHT22;5622;50.840;4.948;2022-10-03T02:28:23;10.40;99.90
11136;DHT22;5622;50.840;4.948;2022-10-03T02:34:17;10.30;99.90
11136;DHT22;5622;50.840;4.948;2022-10-03T02:37:05;10.30;99.90
11136;DHT22;5622;50.840;4.948;2022-10-03T02:46:06;10.10;99.90
11136;DHT22;5622;50.840;4.948;2022-10-03T02:49:15;10.10;99.90
11136;DHT22;5622;50.840;4.948;2022-10-03T02:52:11;9.80;99.90
11136;DHT22;5622;50.840;4.948;2022-10-03T02:55:06;10.00;99.90
11136;DHT22;5622;50.840;4.948;2022-10-03T03:01:18;9.90;99.90
11136;DHT22;5622;50.840;4.948;2022-10-03T03:04:20;9.90;99.90
11136;DHT22;5622;50.840;4.948;2022-10-03T03:07:01;9.90;99.90
11136;DHT22;5622;50.840;4.948;2022-10-03T03:09:56;10.00;99.90
11136;DHT22;5622;50.840;4.948;2022-10-03T03:12:59;10.10;99.90
11136;DHT22;5622;50.840;4.948;2022-10-03T03:18:38;10.00;99.90
11136;DHT22;5622;50.840;4.948;2022-10-03T03:21:17;10.00;99.90
11136;DHT22;5622;50.840;4.948;2022-10-03T03:24:10;9.90;99.90
11136;DHT22;5622;50.840;4.948;2022-10-03T03:26:59;9.90;99.90
11136;DHT22;5622;50.840;4.948;2022-10-03T03:29:35;9.90;99.90
11136;DHT22;5622;50.840;4.948;2022-10-03T03:32:14;9.90;99.90
11136;DHT22;5622;50.840;4.948;2022-10-03T03:34:52;9.90;99.90
11136;DHT22;5622;50.840;4.948;2022-10-03T03:37:33;9.90;99.90
11136;DHT22;5622;50.840;4.948;2022-10-03T03:40:10;9.90;99.90
11136;DHT22;5622;50.840;4.948;2022-10-03T03:43:08;9.90;99.90
11136;DHT22;5622;50.840;4.948;2022-10-03T03:45:58;9.90;99.90
11136;DHT22;5622;50.840;4.948;2022-10-03T03:48:42;9.90;99.90
11136;DHT22;5622;50.840;4.948;2022-10-03T03:51:22;9.90;99.90
11136;DHT22;5622;50.840;4.948;2022-10-03T03:54:22;9.90;99.90
11136;DHT22;5622;50.840;4.948;2022-10-03T03:57:05;9.80;99.90
11136;DHT22;5622;50.840;4.948;2022-10-03T03:59:56;9.90;99.90
11136;DHT22;5622;50.840;4.948;2022-10-03T04:02:55;9.80;99.90
11136;DHT22;5622;50.840;4.948;2022-10-03T04:05:45;9.80;99.90
11136;DHT22;5622;50.840;4.948;2022-10-03T04:08:40;9.80;99.90
11136;DHT22;5622;50.840;4.948;2022-10-03T04:11:21;9.80;99.90
11136;DHT22;5622;50.840;4.948;2022-10-03T04:14:08;9.80;99.90
11136;DHT22;5622;50.840;4.948;2022-10-03T04:19:59;9.70;99.90
11136;DHT22;5622;50.840;4.948;2022-10-03T04:22:47;9.70;99.90
11136;DHT22;5622;50.840;4.948;2022-10-03T04:25:42;9.70;99.90
11136;DHT22;5622;50.840;4.948;2022-10-03T04:31:38;9.70;99.90
11136;DHT22;5622;50.840;4.948;2022-10-03T04:34:32;9.70;99.90
11136;DHT22;5622;50.840;4.948;2022-10-03T04:37:14;9.70;99.90
11136;DHT22;5622;50.840;4.948;2022-10-03T04:39:49;9.70;99.90
11136;DHT22;5622;50.840;4.948;2022-10-03T04:42:26;9.70;99.90
11136;DHT22;5622;50.840;4.948;2022-10-03T04:45:12;9.70;99.90
11136;DHT22;5622;50.840;4.948;2022-10-03T04:47:49;9.70;99.90
11136;DHT22;5622;50.840;4.948;2022-10-03T04:50:24;9.70;99.90
11136;DHT22;5622;50.840;4.948;2022-10-03T04:53:05;9.70;99.90
11136;DHT22;5622;50.840;4.948;2022-10-03T04:55:40;9.60;99.90
11136;DHT22;5622;50.840;4.948;2022-10-03T04:58:16;9.60;99.90
11136;DHT22;5622;50.840;4.948;2022-10-03T05:00:55;9.60;99.90
11136;DHT22;5622;50.840;4.948;2022-10-03T05:03:32;9.50;99.90
11136;DHT22;5622;50.840;4.948;2022-10-03T05:06:06;9.50;99.90
11136;DHT22;5622;50.840;4.948;2022-10-03T05:08:41;9.50;99.90
11136;DHT22;5622;50.840;4.948;2022-10-03T05:11:19;9.50;99.90
11136;DHT22;5622;50.840;4.948;2022-10-03T05:13:58;9.50;99.90
11136;DHT22;5622;50.840;4.948;2022-10-03T05:16:36;9.50;99.90
11136;DHT22;5622;50.840;4.948;2022-10-03T05:22:11;9.50;99.90
11136;DHT22;5622;50.840;4.948;2022-10-03T05:24:48;9.40;99.90
11136;DHT22;5622;50.840;4.948;2022-10-03T05:27:22;9.50;99.90
11136;DHT22;5622;50.840;4.948;2022-10-03T05:29:58;9.40;99.90
11136;DHT22;5622;50.840;4.948;2022-10-03T05:32:37;9.40;99.90
11136;DHT22;5622;50.840;4.948;2022-10-03T05:35:20;9.40;99.90
11136;DHT22;5622;50.840;4.948;2022-10-03T05:38:22;9.50;99.90
11136;DHT22;5622;50.840;4.948;2022-10-03T05:41:02;9.40;99.90
11136;DHT22;5622;50.840;4.948;2022-10-03T05:43:46;9.40;99.90
11136;DHT22;5622;50.840;4.948;2022-10-03T05:46:21;9.40;99.90
11136;DHT22;5622;50.840;4.948;2022-10-03T05:49:04;9.40;99.90
11136;DHT22;5622;50.840;4.948;2022-10-03T05:54:51;9.50;99.90
11136;DHT22;5622;50.840;4.948;2022-10-03T06:00:25;9.50;99.90
11136;DHT22;5622;50.840;4.948;2022-10-03T06:03:30;9.50;99.90
11136;DHT22;5622;50.840;4.948;2022-10-03T06:06:16;9.50;99.90
11136;DHT22;5622;50.840;4.948;2022-10-03T06:09:14;9.60;99.90
11136;DHT22;5622;50.840;4.948;2022-10-03T06:12:05;9.60;99.90
11136;DHT22;5622;50.840;4.948;2022-10-03T06:15:28;9.60;99.90
11136;DHT22;5622;50.840;4.948;2022-10-03T06:18:20;9.60;99.90
11136;DHT22;5622;50.840;4.948;2022-10-03T06:21:13;9.70;99.90
11136;DHT22;5622;50.840;4.948;2022-10-03T06:24:03;9.70;99.90
11136;DHT22;5622;50.840;4.948;2022-10-03T06:29:51;9.70;99.90
11136;DHT22;5622;50.840;4.948;2022-10-03T06:42:17;9.70;99.90
11136;DHT22;5622;50.840;4.948;2022-10-03T06:47:56;9.80;99.90
11136;DHT22;5622;50.840;4.948;2022-10-03T06:53:39;10.10;99.90
11136;DHT22;5622;50.840;4.948;2022-10-03T07:13:49;9.90;99.90
11136;DHT22;5622;50.840;4.948;2022-10-03T07:23:48;9.90;99.90
11136;DHT22;5622;50.840;4.948;2022-10-03T07:27:06;10.00;99.90
11136;DHT22;5622;50.840;4.948;2022-10-03T08:11:02;11.40;99.90
11136;DHT22;5622;50.840;4.948;2022-10-03T08:20:58;11.60;99.90
11136;DHT22;5622;50.840;4.948;2022-10-03T08:41:56;12.20;99.90
11136;DHT22;5622;50.840;4.948;2022-10-03T08:44:56;12.30;99.90
11136;DHT22;5622;50.840;4.948;2022-10-03T08:48:07;12.30;99.90
11136;DHT22;5622;50.840;4.948;2022-10-03T08:53:58;12.50;99.90
11136;DHT22;5622;50.840;4.948;2022-10-03T09:33:56;13.00;99.90
11136;DHT22;5622;50.840;4.948;2022-10-03T10:07:51;13.50;99.90
11136;DHT22;5622;50.840;4.948;2022-10-03T10:10:50;13.70;99.90
11136;DHT22;5622;50.840;4.948;2022-10-03T10:16:39;13.90;99.90
11136;DHT22;5622;50.840;4.948;2022-10-03T10:19:24;14.20;99.90
11136;DHT22;5622;50.840;4.948;2022-10-03T10:22:08;14.40;99.90
11136;DHT22;5622;50.840;4.948;2022-10-03T10:25:18;14.60;99.90
11136;DHT22;5622;50.840;4.948;2022-10-03T10:28:16;14.90;99.90
11136;DHT22;5622;50.840;4.948;2022-10-03T10:44:04;16.20;99.90
11136;DHT22;5622;50.840;4.948;2022-10-03T10:47:11;16.50;99.90
11136;DHT22;5622;50.840;4.948;2022-10-03T11:09:23;16.00;99.90
11136;DHT22;5622;50.840;4.948;2022-10-03T11:19:02;15.70;99.90
11136;DHT22;5622;50.840;4.948;2022-10-03T11:22:28;15.60;99.90
11136;DHT22;5622;50.840;4.948;2022-10-03T11:25:42;15.50;99.90
11136;DHT22;5622;50.840;4.948;2022-10-03T11:34:52;15.40;99.90
11136;DHT22;5622;50.840;4.948;2022-10-03T11:37:41;15.30;99.90
11136;DHT22;5622;50.840;4.948;2022-10-03T11:40:25;15.30;99.90
11136;DHT22;5622;50.840;4.948;2022-10-03T11:43:17;15.30;99.90
11136;DHT22;5622;50.840;4.948;2022-10-03T11:45:52;15.30;99.90
11136;DHT22;5622;50.840;4.948;2022-10-03T11:48:36;15.30;99.90
11136;DHT22;5622;50.840;4.948;2022-10-03T11:51:07;15.40;99.90
11136;DHT22;5622;50.840;4.948;2022-10-03T11:53:46;15.40;99.90
11136;DHT22;5622;50.840;4.948;2022-10-03T11:56:32;15.40;99.90
11136;DHT22;5622;50.840;4.948;2022-10-03T11:59:23;15.40;99.90
11136;DHT22;5622;50.840;4.948;2022-10-03T12:02:14;15.40;99.90
11136;DHT22;5622;50.840;4.948;2022-10-03T12:04:51;15.40;99.90
11136;DHT22;5622;50.840;4.948;2022-10-03T12:07:38;15.40;99.90
11136;DHT22;5622;50.840;4.948;2022-10-03T12:10:35;15.50;99.90
11136;DHT22;5622;50.840;4.948;2022-10-03T12:13:09;15.40;99.90
11136;DHT22;5622;50.840;4.948;2022-10-03T12:15:41;15.40;99.90
11136;DHT22;5622;50.840;4.948;2022-10-03T12:18:15;15.40;99.90
11136;DHT22;5622;50.840;4.948;2022-10-03T12:21:03;15.40;99.90
11136;DHT22;5622;50.840;4.948;2022-10-03T12:23:46;15.40;99.90
11136;DHT22;5622;50.840;4.948;2022-10-03T12:26:25;15.30;99.90
11136;DHT22;5622;50.840;4.948;2022-10-03T12:28:56;15.30;99.90
11136;DHT22;5622;50.840;4.948;2022-10-03T12:31:34;15.30;99.90
11136;DHT22;5622;50.840;4.948;2022-10-03T12:34:19;15.30;99.90
11136;DHT22;5622;50.840;4.948;2022-10-03T12:36:56;15.30;99.90
11136;DHT22;5622;50.840;4.948;2022-10-03T12:39:37;15.30;99.90
11136;DHT22;5622;50.840;4.948;2022-10-03T12:42:27;15.30;99.90
11136;DHT22;5622;50.840;4.948;2022-10-03T12:45:15;15.20;99.90
11136;DHT22;5622;50.840;4.948;2022-10-03T12:47:59;15.30;99.90
11136;DHT22;5622;50.840;4.948;2022-10-03T12:50:37;15.30;99.90
11136;DHT22;5622;50.840;4.948;2022-10-03T12:53:21;15.30;99.90
11136;DHT22;5622;50.840;4.948;2022-10-03T12:56:01;15.30;99.90
11136;DHT22;5622;50.840;4.948;2022-10-03T12:58:44;15.30;99.90
11136;DHT22;5622;50.840;4.948;2022-10-03T13:01:25;15.30;99.90
11136;DHT22;5622;50.840;4.948;2022-10-03T13:03:56;15.30;99.90
11136;DHT22;5622;50.840;4.948;2022-10-03T13:06:36;15.30;99.90
11136;DHT22;5622;50.840;4.948;2022-10-03T13:12:41;15.30;99.90
11136;DHT22;5622;50.840;4.948;2022-10-03T13:15:45;15.30;99.90
11136;DHT22;5622;50.840;4.948;2022-10-03T13:18:47;15.30;99.90
11136;DHT22;5622;50.840;4.948;2022-10-03T13:21:29;15.30;99.90
11136;DHT22;5622;50.840;4.948;2022-10-03T13:24:02;15.40;99.90
11136;DHT22;5622;50.840;4.948;2022-10-03T13:26:45;15.50;99.90
11136;DHT22;5622;50.840;4.948;2022-10-03T13:29:24;15.60;99.90
11136;DHT22;5622;50.840;4.948;2022-10-03T13:32:00;15.60;99.90
11136;DHT22;5622;50.840;4.948;2022-10-03T13:34:44;15.60;99.90
11136;DHT22;5622;50.840;4.948;2022-10-03T13:37:20;15.70;99.90
11136;DHT22;5622;50.840;4.948;2022-10-03T13:39:51;15.70;99.90
11136;DHT22;5622;50.840;4.948;2022-10-03T13:42:28;15.70;99.90
11136;DHT22;5622;50.840;4.948;2022-10-03T13:45:01;15.70;99.90
11136;DHT22;5622;50.840;4.948;2022-10-03T13:47:47;15.80;99.90
11136;DHT22;5622;50.840;4.948;2022-10-03T13:50:23;15.80;99.90
11136;DHT22;5622;50.840;4.948;2022-10-03T13:52:56;15.80;99.90
11136;DHT22;5622;50.840;4.948;2022-10-03T13:55:37;15.80;99.90
11136;DHT22;5622;50.840;4.948;2022-10-03T13:58:30;15.80;99.90
11136;DHT22;5622;50.840;4.948;2022-10-03T14:33:10;15.40;99.90
11136;DHT22;5622;50.840;4.948;2022-10-03T14:46:01;15.40;99.90
11136;DHT22;5622;50.840;4.948;2022-10-03T14:48:35;15.40;99.90
11136;DHT22;5622;50.840;4.948;2022-10-03T14:51:09;15.40;99.90
11136;DHT22;5622;50.840;4.948;2022-10-03T14:53:45;15.40;99.90
11136;DHT22;5622;50.840;4.948;2022-10-03T14:56:13;15.40;99.90
11136;DHT22;5622;50.840;4.948;2022-10-03T14:58:54;15.40;99.90
11136;DHT22;5622;50.840;4.948;2022-10-03T15:01:33;15.40;99.90
11136;DHT22;5622;50.840;4.948;2022-10-03T15:04:04;15.30;99.90
11136;DHT22;5622;50.840;4.948;2022-10-03T15:06:47;15.30;99.90
11136;DHT22;5622;50.840;4.948;2022-10-03T15:09:22;15.30;99.90
11136;DHT22;5622;50.840;4.948;2022-10-03T15:11:53;15.30;99.90
11136;DHT22;5622;50.840;4.948;2022-10-03T15:14:26;15.30;99.90
11136;DHT22;5622;50.840;4.948;2022-10-03T15:16:56;15.30;99.90
11136;DHT22;5622;50.840;4.948;2022-10-03T15:19:28;15.30;99.90
11136;DHT22;5622;50.840;4.948;2022-10-03T15:22:03;15.40;99.90
11136;DHT22;5622;50.840;4.948;2022-10-03T15:24:33;15.30;99.90
11136;DHT22;5622;50.840;4.948;2022-10-03T15:27:20;15.30;99.90
11136;DHT22;5622;50.840;4.948;2022-10-03T15:29:58;15.30;99.90
11136;DHT22;5622;50.840;4.948;2022-10-03T15:32:31;15.30;99.90
11136;DHT22;5622;50.840;4.948;2022-10-03T15:35:01;15.20;99.90
11136;DHT22;5622;50.840;4.948;2022-10-03T15:37:31;15.20;99.90
11136;DHT22;5622;50.840;4.948;2022-10-03T15:40:04;15.30;99.90
11136;DHT22;5622;50.840;4.948;2022-10-03T15:42:44;15.20;99.90
11136;DHT22;5622;50.840;4.948;2022-10-03T15:45:18;15.20;99.90
11136;DHT22;5622;50.840;4.948;2022-10-03T15:47:48;15.20;99.90
11136;DHT22;5622;50.840;4.948;2022-10-03T15:50:20;15.20;99.90
11136;DHT22;5622;50.840;4.948;2022-10-03T15:52:50;15.10;99.90
11136;DHT22;5622;50.840;4.948;2022-10-03T15:55:23;15.10;99.90
11136;DHT22;5622;50.840;4.948;2022-10-03T16:11:01;15.10;99.90
11136;DHT22;5622;50.840;4.948;2022-10-03T16:13:35;15.00;99.90
11136;DHT22;5622;50.840;4.948;2022-10-03T16:16:14;15.00;99.90
11136;DHT22;5622;50.840;4.948;2022-10-03T16:18:47;15.00;99.90
11136;DHT22;5622;50.840;4.948;2022-10-03T16:21:29;14.90;99.90
11136;DHT22;5622;50.840;4.948;2022-10-03T16:23:59;14.90;99.90
11136;DHT22;5622;50.840;4.948;2022-10-03T16:26:30;14.80;99.90
11136;DHT22;5622;50.840;4.948;2022-10-03T16:29:06;14.80;99.90
11136;DHT22;5622;50.840;4.948;2022-10-03T16:31:41;14.80;99.90
11136;DHT22;5622;50.840;4.948;2022-10-03T16:34:13;14.80;99.90
11136;DHT22;5622;50.840;4.948;2022-10-03T16:36:42;14.70;99.90
11136;DHT22;5622;50.840;4.948;2022-10-03T16:39:18;14.60;99.90
11136;DHT22;5622;50.840;4.948;2022-10-03T16:41:49;14.60;99.90
11136;DHT22;5622;50.840;4.948;2022-10-03T16:44:23;14.50;99.90
11136;DHT22;5622;50.840;4.948;2022-10-03T16:46:53;14.50;99.90
11136;DHT22;5622;50.840;4.948;2022-10-03T16:49:38;14.50;99.90
11136;DHT22;5622;50.840;4.948;2022-10-03T16:52:29;14.40;99.90
11136;DHT22;5622;50.840;4.948;2022-10-03T16:55:01;14.40;99.90
11136;DHT22;5622;50.840;4.948;2022-10-03T16:57:39;14.30;99.90
11136;DHT22;5622;50.840;4.948;2022-10-03T17:00:14;14.20;99.90
11136;DHT22;5622;50.840;4.948;2022-10-03T17:02:42;14.20;99.90
11136;DHT22;5622;50.840;4.948;2022-10-03T17:05:12;14.20;99.90
11136;DHT22;5622;50.840;4.948;2022-10-03T17:07:42;14.10;99.90
11136;DHT22;5622;50.840;4.948;2022-10-03T17:10:31;14.10;99.90
11136;DHT22;5622;50.840;4.948;2022-10-03T17:13:04;14.00;99.90
11136;DHT22;5622;50.840;4.948;2022-10-03T17:15:34;14.00;99.90
11136;DHT22;5622;50.840;4.948;2022-10-03T17:18:24;14.00;99.90
11136;DHT22;5622;50.840;4.948;2022-10-03T17:20:55;13.90;99.90
11136;DHT22;5622;50.840;4.948;2022-10-03T17:23:30;13.90;99.90
11136;DHT22;5622;50.840;4.948;2022-10-03T17:26:05;13.90;99.90
11136;DHT22;5622;50.840;4.948;2022-10-03T17:28:41;13.80;99.90
11136;DHT22;5622;50.840;4.948;2022-10-03T17:31:24;13.90;99.90
11136;DHT22;5622;50.840;4.948;2022-10-03T17:33:55;13.90;99.90
11136;DHT22;5622;50.840;4.948;2022-10-03T17:36:57;13.80;99.90
11136;DHT22;5622;50.840;4.948;2022-10-03T17:39:37;13.70;99.90
11136;DHT22;5622;50.840;4.948;2022-10-03T17:42:20;13.70;99.90
11136;DHT22;5622;50.840;4.948;2022-10-03T17:44:56;13.70;99.90
11136;DHT22;5622;50.840;4.948;2022-10-03T17:47:32;13.70;99.90
11136;DHT22;5622;50.840;4.948;2022-10-03T17:50:06;13.70;99.90
11136;DHT22;5622;50.840;4.948;2022-10-03T17:52:40;13.60;99.90
11136;DHT22;5622;50.840;4.948;2022-10-03T17:55:15;13.70;99.90
11136;DHT22;5622;50.840;4.948;2022-10-03T17:57:46;13.80;99.90
11136;DHT22;5622;50.840;4.948;2022-10-03T18:00:19;13.60;99.90
11136;DHT22;5622;50.840;4.948;2022-10-03T18:02:54;13.60;99.90
11136;DHT22;5622;50.840;4.948;2022-10-03T18:05:27;13.60;99.90
11136;DHT22;5622;50.840;4.948;2022-10-03T18:07:55;13.60;99.90
11136;DHT22;5622;50.840;4.948;2022-10-03T18:10:30;13.50;99.90
11136;DHT22;5622;50.840;4.948;2022-10-03T18:13:00;13.50;99.90
11136;DHT22;5622;50.840;4.948;2022-10-03T18:19:04;13.40;99.90
11136;DHT22;5622;50.840;4.948;2022-10-03T18:21:51;13.50;99.90
11136;DHT22;5622;50.840;4.948;2022-10-03T18:24:50;13.20;99.90
11136;DHT22;5622;50.840;4.948;2022-10-03T18:27:49;13.20;99.90
11136;DHT22;5622;50.840;4.948;2022-10-03T18:30:24;13.10;99.90
11136;DHT22;5622;50.840;4.948;2022-10-03T18:32:54;13.10;99.90
11136;DHT22;5622;50.840;4.948;2022-10-03T18:35:28;13.10;99.90
11136;DHT22;5622;50.840;4.948;2022-10-03T18:38:06;13.00;99.90
11136;DHT22;5622;50.840;4.948;2022-10-03T18:40:35;13.00;99.90
11136;DHT22;5622;50.840;4.948;2022-10-03T18:46:10;13.00;99.90
11136;DHT22;5622;50.840;4.948;2022-10-03T18:48:53;13.00;99.90
11136;DHT22;5622;50.840;4.948;2022-10-03T18:51:31;13.00;99.90
11136;DHT22;5622;50.840;4.948;2022-10-03T18:54:03;12.90;99.90
11136;DHT22;5622;50.840;4.948;2022-10-03T18:56:31;12.80;99.90
11136;DHT22;5622;50.840;4.948;2022-10-03T18:59:19;12.80;99.90
11136;DHT22;5622;50.840;4.948;2022-10-03T19:01:51;12.70;99.90
11136;DHT22;5622;50.840;4.948;2022-10-03T19:04:35;12.60;99.90
11136;DHT22;5622;50.840;4.948;2022-10-03T19:07:14;12.50;99.90
11136;DHT22;5622;50.840;4.948;2022-10-03T19:10:03;12.50;99.90
11136;DHT22;5622;50.840;4.948;2022-10-03T19:12:39;12.40;99.90
11136;DHT22;5622;50.840;4.948;2022-10-03T19:15:16;12.30;99.90
11136;DHT22;5622;50.840;4.948;2022-10-03T19:17:55;12.30;99.90
11136;DHT22;5622;50.840;4.948;2022-10-03T19:20:31;12.20;99.90
11136;DHT22;5622;50.840;4.948;2022-10-03T19:23:11;12.20;99.90
11136;DHT22;5622;50.840;4.948;2022-10-03T19:25:42;12.20;99.90
11136;DHT22;5622;50.840;4.948;2022-10-03T19:28:16;12.10;99.90
11136;DHT22;5622;50.840;4.948;2022-10-03T19:30:45;12.10;99.90
11136;DHT22;5622;50.840;4.948;2022-10-03T19:33:25;12.00;99.90
11136;DHT22;5622;50.840;4.948;2022-10-03T19:35:57;12.00;99.90
11136;DHT22;5622;50.840;4.948;2022-10-03T19:38:29;12.00;99.90
11136;DHT22;5622;50.840;4.948;2022-10-03T19:41:01;12.00;99.90
11136;DHT22;5622;50.840;4.948;2022-10-03T19:43:41;12.00;99.90
11136;DHT22;5622;50.840;4.948;2022-10-03T19:46:20;12.10;99.90
11136;DHT22;5622;50.840;4.948;2022-10-03T19:49:00;12.10;99.90
11136;DHT22;5622;50.840;4.948;2022-10-03T19:51:30;12.10;99.90
11136;DHT22;5622;50.840;4.948;2022-10-03T19:54:11;12.10;99.90
11136;DHT22;5622;50.840;4.948;2022-10-03T19:56:39;12.10;99.90
11136;DHT22;5622;50.840;4.948;2022-10-03T19:59:13;12.10;99.90
11136;DHT22;5622;50.840;4.948;2022-10-03T20:01:43;12.00;99.90
11136;DHT22;5622;50.840;4.948;2022-10-03T20:04:12;12.00;99.90
11136;DHT22;5622;50.840;4.948;2022-10-03T20:06:43;12.00;99.90
11136;DHT22;5622;50.840;4.948;2022-10-03T20:09:21;12.00;99.90
11136;DHT22;5622;50.840;4.948;2022-10-03T20:11:50;12.00;99.90
11136;DHT22;5622;50.840;4.948;2022-10-03T20:14:19;12.00;99.90
11136;DHT22;5622;50.840;4.948;2022-10-03T20:16:53;12.00;99.90
11136;DHT22;5622;50.840;4.948;2022-10-03T20:19:23;12.00;99.90
11136;DHT22;5622;50.840;4.948;2022-10-03T20:21:52;12.10;99.90
11136;DHT22;5622;50.840;4.948;2022-10-03T20:24:28;12.10;99.90
11136;DHT22;5622;50.840;4.948;2022-10-03T20:27:05;12.00;99.90
11136;DHT22;5622;50.840;4.948;2022-10-03T20:29:36;12.00;99.90
11136;DHT22;5622;50.840;4.948;2022-10-03T20:32:10;12.00;99.90
11136;DHT22;5622;50.840;4.948;2022-10-03T20:34:40;12.00;99.90
11136;DHT22;5622;50.840;4.948;2022-10-03T20:37:25;12.00;99.90
11136;DHT22;5622;50.840;4.948;2022-10-03T20:40:02;12.00;99.90
11136;DHT22;5622;50.840;4.948;2022-10-03T20:42:33;12.00;99.90
11136;DHT22;5622;50.840;4.948;2022-10-03T20:45:05;12.00;99.90
11136;DHT22;5622;50.840;4.948;2022-10-03T20:47:55;12.10;99.90
11136;DHT22;5622;50.840;4.948;2022-10-03T20:50:29;12.10;99.90
11136;DHT22;5622;50.840;4.948;2022-10-03T20:52:58;12.10;99.90
11136;DHT22;5622;50.840;4.948;2022-10-03T20:55:30;12.20;99.90
11136;DHT22;5622;50.840;4.948;2022-10-03T20:58:03;12.10;99.90
11136;DHT22;5622;50.840;4.948;2022-10-03T21:00:32;12.10;99.90
11136;DHT22;5622;50.840;4.948;2022-10-03T21:03:13;12.10;99.90
11136;DHT22;5622;50.840;4.948;2022-10-03T21:05:46;12.10;99.90
11136;DHT22;5622;50.840;4.948;2022-10-03T21:08:23;12.20;99.90
11136;DHT22;5622;50.840;4.948;2022-10-03T21:10:56;12.20;99.90
11136;DHT22;5622;50.840;4.948;2022-10-03T21:13:29;12.20;99.90
11136;DHT22;5622;50.840;4.948;2022-10-03T21:15:59;12.20;99.90
11136;DHT22;5622;50.840;4.948;2022-10-03T21:18:31;12.20;99.90
11136;DHT22;5622;50.840;4.948;2022-10-03T21:21:06;12.20;99.90
11136;DHT22;5622;50.840;4.948;2022-10-03T21:23:37;12.30;99.90
11136;DHT22;5622;50.840;4.948;2022-10-03T21:26:08;12.30;99.90
11136;DHT22;5622;50.840;4.948;2022-10-03T21:28:37;12.30;99.90
11136;DHT22;5622;50.840;4.948;2022-10-03T21:31:32;12.30;99.90
11136;DHT22;5622;50.840;4.948;2022-10-03T21:34:06;12.30;99.90
11136;DHT22;5622;50.840;4.948;2022-10-03T21:36:45;12.20;99.90
11136;DHT22;5622;50.840;4.948;2022-10-03T21:39:17;12.20;99.90
11136;DHT22;5622;50.840;4.948;2022-10-03T21:42:00;12.10;99.90
11136;DHT22;5622;50.840;4.948;2022-10-03T21:44:48;12.10;99.90
11136;DHT22;5622;50.840;4.948;2022-10-03T21:47:28;12.00;99.90
11136;DHT22;5622;50.840;4.948;2022-10-03T21:50:01;12.00;99.90
11136;DHT22;5622;50.840;4.948;2022-10-03T21:52:42;11.90;99.90
11136;DHT22;5622;50.840;4.948;2022-10-03T21:55:28;11.90;99.90
11136;DHT22;5622;50.840;4.948;2022-10-03T21:58:09;11.90;99.90
11136;DHT22;5622;50.840;4.948;2022-10-03T22:00:55;11.80;99.90
11136;DHT22;5622;50.840;4.948;2022-10-03T22:03:29;11.60;99.90
11136;DHT22;5622;50.840;4.948;2022-10-03T22:06:04;11.60;99.90
11136;DHT22;5622;50.840;4.948;2022-10-03T22:08:34;11.50;99.90
11136;DHT22;5622;50.840;4.948;2022-10-03T22:11:12;11.50;99.90
11136;DHT22;5622;50.840;4.948;2022-10-03T22:13:51;11.40;99.90
11136;DHT22;5622;50.840;4.948;2022-10-03T22:16:26;11.40;99.90
11136;DHT22;5622;50.840;4.948;2022-10-03T22:19:16;11.40;99.90
11136;DHT22;5622;50.840;4.948;2022-10-03T22:21:51;11.40;99.90
11136;DHT22;5622;50.840;4.948;2022-10-03T22:24:28;11.40;99.90
11136;DHT22;5622;50.840;4.948;2022-10-03T22:27:06;11.30;99.90
11136;DHT22;5622;50.840;4.948;2022-10-03T22:29:42;11.30;99.90
11136;DHT22;5622;50.840;4.948;2022-10-03T22:32:17;11.30;99.90
11136;DHT22;5622;50.840;4.948;2022-10-03T22:34:53;11.30;99.90
11136;DHT22;5622;50.840;4.948;2022-10-03T22:37:23;11.30;99.90
11136;DHT22;5622;50.840;4.948;2022-10-03T22:39:50;11.30;99.90
11136;DHT22;5622;50.840;4.948;2022-10-03T22:42:17;11.30;99.90
11136;DHT22;5622;50.840;4.948;2022-10-03T22:44:49;11.30;99.90
11136;DHT22;5622;50.840;4.948;2022-10-03T22:47:22;11.30;99.90